createdAt,value
2019-02-02T00:03:39.537Z,23.00
2019-02-02T00:07:43.469Z,16.43
2019-02-02T00:11:47.418Z,51.63
2019-02-02T00:15:51.538Z,50.40
2019-02-02T00:19:55.912Z,37.60
2019-02-02T00:24:00.166Z,25.93
2019-02-02T00:28:04.030Z,51.27
2019-02-02T00:32:07.944Z,29.30
2019-02-02T00:36:11.854Z,10.30
2019-02-02T00:40:15.736Z,9.17
2019-02-02T00:44:22.110Z,6.63
2019-02-02T00:48:26.016Z,5.80
2019-02-02T00:52:30.938Z,6.40
2019-02-02T00:56:34.896Z,6.50
2019-02-02T01:00:39.116Z,7.07
2019-02-02T01:04:43.057Z,6.37
2019-02-02T01:08:46.936Z,4.70
2019-02-02T01:12:50.867Z,6.60
2019-02-02T01:16:54.705Z,5.23
2019-02-02T01:20:58.516Z,4.70
2019-02-02T01:25:02.417Z,4.50
2019-02-02T01:29:06.331Z,7.00
2019-02-02T01:33:10.157Z,5.90
2019-02-02T01:37:14.176Z,6.10
2019-02-02T01:41:17.967Z,4.70
2019-02-02T01:45:22.427Z,6.00
2019-02-02T01:49:26.201Z,4.50
2019-02-02T01:53:30.294Z,3.73
2019-02-02T01:57:34.098Z,6.17
2019-02-02T02:01:41.566Z,4.23
2019-02-02T02:05:44.759Z,4.00
2019-02-02T02:09:48.597Z,4.20
2019-02-02T02:13:52.498Z,3.43
2019-02-02T02:17:56.439Z,3.40
2019-02-02T02:22:00.344Z,3.40
2019-02-02T02:26:05.014Z,2.53
2019-02-02T02:30:10.031Z,3.30
2019-02-02T02:34:13.964Z,3.00
2019-02-02T02:38:17.845Z,3.20
2019-02-02T02:42:21.643Z,2.87
2019-02-02T02:46:25.554Z,3.27
2019-02-02T02:50:29.435Z,3.17
2019-02-02T02:54:33.222Z,3.57
2019-02-02T02:58:41.625Z,2.87
2019-02-02T03:02:42.866Z,1.80
2019-02-02T03:06:46.899Z,2.20
2019-02-02T03:10:50.830Z,1.43
2019-02-02T03:14:54.662Z,2.03
2019-02-02T03:18:58.435Z,1.77
2019-02-02T03:23:02.375Z,1.63
2019-02-02T03:27:06.376Z,1.70
2019-02-02T03:31:10.368Z,2.30
2019-02-02T03:35:14.995Z,1.80
2019-02-02T03:39:18.981Z,1.80
2019-02-02T03:43:22.769Z,1.83
2019-02-02T03:47:26.723Z,1.97
2019-02-02T03:51:30.654Z,1.60
2019-02-02T03:55:34.689Z,1.90
2019-02-02T04:04:15.050Z,2.00
2019-02-02T04:08:19.957Z,2.30
2019-02-02T04:12:24.043Z,2.50
2019-02-02T04:16:27.889Z,2.87
2019-02-02T04:20:31.752Z,2.40
2019-02-02T04:24:35.635Z,2.83
2019-02-02T04:28:39.533Z,2.60
2019-02-02T04:32:43.430Z,4.53
2019-02-02T04:36:48.381Z,4.93
2019-02-02T04:40:52.253Z,4.77
2019-02-02T04:44:56.333Z,4.57
2019-02-02T04:49:00.167Z,4.50
2019-02-02T04:53:04.049Z,2.87
2019-02-02T04:57:07.988Z,2.93
2019-02-02T05:01:11.913Z,3.23
2019-02-02T05:05:15.902Z,3.40
2019-02-02T05:09:19.884Z,2.80
2019-02-02T05:13:23.802Z,3.13
2019-02-02T05:17:27.881Z,2.40
2019-02-02T05:21:31.683Z,2.57
2019-02-02T05:25:35.719Z,3.20
2019-02-02T05:29:41.481Z,3.27
2019-02-02T05:33:45.239Z,3.57
2019-02-02T05:37:49.197Z,4.77
2019-02-02T05:41:53.352Z,4.30
2019-02-02T05:45:57.303Z,4.77
2019-02-02T05:50:01.254Z,5.57
2019-02-02T05:54:05.203Z,6.30
2019-02-02T05:58:09.129Z,4.93
2019-02-02T06:02:13.013Z,4.93
2019-02-02T06:06:16.949Z,5.30
2019-02-02T06:10:21.198Z,5.60
2019-02-02T06:14:24.985Z,4.77
2019-02-02T06:18:28.879Z,4.23
2019-02-02T06:22:32.784Z,6.00
2019-02-02T06:26:36.732Z,5.97
2019-02-02T06:30:40.683Z,5.20
2019-02-02T06:34:44.596Z,6.20
2019-02-02T06:38:48.627Z,6.37
2019-02-02T06:42:52.547Z,6.03
2019-02-02T06:46:56.456Z,9.73
2019-02-02T06:51:00.468Z,7.87
2019-02-02T06:55:04.723Z,7.47
2019-02-02T06:59:08.817Z,6.00
2019-02-02T07:03:13.280Z,7.50
2019-02-02T07:07:17.486Z,7.30
2019-02-02T07:11:21.491Z,7.10
2019-02-02T07:15:26.332Z,8.03
2019-02-02T07:19:30.237Z,6.50
2019-02-02T07:23:34.186Z,6.33
2019-02-02T07:27:38.088Z,8.03
2019-02-02T07:31:42.055Z,6.93
2019-02-02T07:35:46.082Z,6.73
2019-02-02T07:39:50.133Z,9.97
2019-02-02T07:43:53.987Z,9.73
2019-02-02T07:47:57.913Z,8.00
2019-02-02T07:52:01.898Z,7.23
2019-02-02T07:56:05.839Z,7.37
2019-02-02T08:00:12.515Z,6.57
2019-02-02T08:04:16.448Z,7.00
2019-02-02T08:08:20.336Z,7.03
2019-02-02T08:12:24.184Z,8.53
2019-02-02T08:16:28.279Z,8.47
2019-02-02T08:20:32.218Z,8.87
2019-02-02T08:24:38.595Z,8.13
2019-02-02T08:28:41.790Z,9.40
2019-02-02T08:32:45.753Z,9.23
2019-02-02T08:36:49.742Z,11.63
2019-02-02T08:40:53.662Z,11.43
2019-02-02T08:44:59.938Z,8.07
2019-02-02T08:49:04.055Z,11.03
2019-02-02T08:53:08.018Z,14.23
2019-02-02T08:57:12.000Z,14.90
2019-02-02T09:01:16.204Z,9.67
2019-02-02T09:05:20.311Z,6.53
2019-02-02T09:09:25.315Z,8.30
2019-02-02T09:13:31.775Z,10.13
2019-02-02T09:17:35.681Z,8.83
2019-02-02T09:21:39.803Z,10.40
2019-02-02T09:25:43.563Z,8.70
2019-02-02T09:29:47.952Z,11.90
2019-02-02T09:33:52.023Z,10.87
2019-02-02T09:37:55.944Z,10.50
2019-02-02T09:41:59.973Z,14.40
2019-02-02T09:46:04.741Z,14.10
2019-02-02T09:50:10.081Z,12.97
2019-02-02T09:54:26.057Z,10.37
2019-02-02T09:58:21.528Z,13.87
2019-02-02T10:02:27.158Z,12.23
2019-02-02T10:06:32.597Z,9.27
2019-02-02T10:10:37.501Z,9.30
2019-02-02T10:14:41.371Z,11.87
2019-02-02T10:18:45.188Z,11.97
2019-02-02T10:22:49.142Z,15.87
2019-02-02T10:26:53.120Z,14.10
2019-02-02T10:30:58.538Z,13.63
2019-02-02T10:35:02.466Z,16.00
2019-02-02T10:39:07.537Z,16.77
2019-02-02T10:43:11.453Z,14.70
2019-02-02T10:47:16.246Z,13.00
2019-02-02T10:51:20.214Z,13.53
2019-02-02T10:55:24.038Z,16.40
2019-02-02T10:59:27.909Z,11.63
2019-02-02T11:03:32.817Z,12.53
2019-02-02T11:07:36.923Z,10.83
2019-02-02T11:11:40.953Z,12.80
2019-02-02T11:15:46.092Z,11.60
2019-02-02T11:19:50.163Z,9.40
2019-02-02T11:23:54.075Z,10.33
2019-02-02T11:27:58.052Z,13.40
2019-02-02T11:32:03.149Z,11.43
2019-02-02T11:36:07.235Z,12.90
2019-02-02T11:40:13.496Z,8.07
2019-02-02T11:44:20.150Z,9.80
2019-02-02T11:48:24.182Z,6.47
2019-02-02T11:52:28.118Z,8.73
2019-02-02T11:56:31.937Z,8.67
2019-02-02T12:00:37.140Z,8.90
2019-02-02T12:04:41.261Z,9.20
2019-02-02T12:08:45.327Z,9.90
2019-02-02T12:12:49.366Z,8.67
2019-02-02T12:16:53.314Z,7.93
2019-02-02T12:20:57.131Z,8.30
2019-02-02T12:25:01.895Z,8.27
2019-02-02T12:29:06.180Z,9.20
2019-02-02T12:33:10.110Z,6.23
2019-02-02T12:37:14.037Z,8.37
2019-02-02T12:41:17.837Z,7.67
2019-02-02T12:45:23.221Z,10.60
2019-02-02T12:49:27.174Z,10.90
2019-02-02T12:53:31.016Z,14.50
2019-02-02T12:57:36.257Z,10.07
2019-02-02T13:01:40.191Z,9.97
2019-02-02T13:05:44.078Z,7.70
2019-02-02T13:09:51.569Z,8.60
2019-02-02T13:13:55.457Z,11.73
2019-02-02T13:17:59.412Z,12.40
2019-02-02T13:22:03.234Z,13.43
2019-02-02T13:26:07.173Z,10.03
2019-02-02T13:30:12.542Z,9.70
2019-02-02T13:34:16.461Z,15.97
2019-02-02T13:38:20.367Z,10.97
2019-02-02T13:42:24.340Z,33.03
2019-02-02T13:46:28.234Z,18.70
2019-02-02T13:50:32.061Z,12.27
2019-02-02T13:54:35.987Z,118.63
2019-02-02T13:58:39.994Z,78.33
2019-02-02T14:02:43.939Z,42.57
2019-02-02T14:06:48.037Z,22.37
2019-02-02T14:10:51.942Z,13.87
2019-02-02T14:14:55.805Z,10.87
2019-02-02T14:18:59.749Z,13.23
2019-02-02T14:23:03.519Z,12.57
2019-02-02T14:27:07.336Z,8.07
2019-02-02T14:31:11.269Z,9.70
2019-02-02T14:35:15.575Z,6.97
2019-02-02T14:39:19.758Z,6.67
2019-02-02T14:43:23.569Z,9.23
2019-02-02T14:47:27.608Z,10.07
2019-02-02T14:51:31.412Z,9.03
2019-02-02T14:55:36.510Z,9.93
2019-02-02T14:59:40.380Z,11.37
2019-02-02T15:03:44.427Z,11.53
2019-02-02T15:07:48.441Z,12.70
2019-02-02T15:11:52.338Z,8.23
2019-02-02T15:15:56.168Z,6.97
2019-02-02T15:20:00.185Z,6.07
2019-02-02T15:24:05.880Z,6.27
2019-02-02T15:28:09.872Z,5.87
2019-02-02T15:32:13.743Z,7.07
2019-02-02T15:36:17.693Z,7.23
2019-02-02T15:40:21.725Z,7.17
2019-02-02T15:44:25.722Z,6.60
2019-02-02T15:48:30.731Z,4.53
2019-02-02T15:52:34.933Z,4.53
2019-02-02T15:56:39.015Z,4.10
2019-02-02T16:00:43.080Z,4.70
2019-02-02T16:04:46.999Z,5.40
2019-02-02T16:08:51.019Z,4.20
2019-02-02T16:12:54.841Z,5.30
2019-02-02T16:16:59.801Z,5.40
2019-02-02T16:21:03.710Z,5.10
2019-02-02T16:25:09.446Z,5.60
2019-02-02T16:29:13.461Z,7.20
2019-02-02T16:33:17.342Z,6.50
2019-02-02T16:37:21.261Z,8.63
2019-02-02T16:41:25.084Z,8.73
2019-02-02T16:45:29.531Z,6.43
2019-02-02T16:49:33.362Z,7.23
2019-02-02T16:53:38.511Z,4.57
2019-02-02T16:57:42.399Z,7.37
2019-02-02T17:01:46.363Z,5.00
2019-02-02T17:05:50.312Z,5.37
2019-02-02T17:09:54.263Z,5.60
2019-02-02T17:13:58.096Z,6.03
2019-02-02T17:18:01.982Z,7.50
2019-02-02T17:22:06.075Z,6.37
2019-02-02T17:26:10.033Z,6.40
2019-02-02T17:30:15.125Z,4.80
2019-02-02T17:34:26.834Z,6.20
2019-02-02T17:38:24.684Z,5.93
2019-02-02T17:42:28.733Z,8.77
2019-02-02T17:46:32.568Z,10.53
2019-02-02T17:50:36.554Z,7.00
2019-02-02T17:54:40.359Z,7.70
2019-02-02T17:58:44.279Z,7.40
2019-02-02T18:02:48.232Z,5.60
2019-02-02T18:06:52.304Z,5.70
2019-02-02T18:10:56.553Z,5.40
2019-02-02T18:15:00.373Z,6.30
2019-02-02T18:19:04.390Z,6.67
2019-02-02T18:23:08.236Z,8.90
2019-02-02T18:27:12.107Z,9.57
2019-02-02T18:31:16.088Z,7.53
2019-02-02T18:35:20.070Z,6.53
2019-02-02T18:39:24.018Z,7.43
2019-02-02T18:43:28.053Z,6.37
2019-02-02T18:47:32.076Z,10.23
2019-02-02T18:51:35.994Z,9.13
2019-02-02T18:55:41.204Z,7.70
2019-02-02T18:59:45.241Z,8.03
2019-02-02T19:03:49.092Z,7.17
2019-02-02T19:07:53.126Z,8.70
2019-02-02T19:11:57.056Z,7.03
2019-02-02T19:16:00.919Z,7.47
2019-02-02T19:20:05.370Z,7.90
2019-02-02T19:24:10.498Z,7.77
2019-02-02T19:28:14.380Z,6.63
2019-02-02T19:32:18.270Z,6.33
2019-02-02T19:36:22.150Z,7.57
2019-02-02T19:40:26.187Z,9.20
2019-02-02T19:44:30.049Z,7.47
2019-02-02T19:48:34.026Z,5.23
2019-02-02T19:52:40.488Z,6.17
2019-02-02T19:56:44.641Z,5.37
2019-02-02T20:00:48.756Z,5.23
2019-02-02T20:04:52.646Z,5.40
2019-02-02T20:08:56.947Z,6.60
2019-02-02T20:13:00.885Z,6.77
2019-02-02T20:17:04.803Z,6.87
2019-02-02T20:21:08.723Z,6.23
2019-02-02T20:25:12.705Z,9.27
2019-02-02T20:29:16.695Z,8.97
2019-02-02T20:33:20.734Z,8.47
2019-02-02T20:37:24.753Z,9.47
2019-02-02T20:41:31.288Z,7.40
2019-02-02T20:45:35.479Z,8.90
2019-02-02T20:49:39.401Z,8.60
2019-02-02T20:53:44.395Z,7.03
2019-02-02T20:57:48.270Z,6.83
2019-02-02T21:01:52.170Z,6.77
2019-02-02T21:05:56.247Z,8.07
2019-02-02T21:10:00.343Z,7.07
2019-02-02T21:14:05.256Z,9.73
2019-02-02T21:18:11.835Z,7.90
2019-02-02T21:22:14.817Z,6.80
2019-02-02T21:26:18.610Z,7.37
2019-02-02T21:30:24.774Z,7.43
2019-02-02T21:34:28.772Z,7.70
2019-02-02T21:38:32.929Z,6.77
2019-02-02T21:42:37.223Z,10.20
2019-02-02T21:46:41.200Z,9.70
2019-02-02T21:50:44.998Z,10.37
2019-02-02T21:54:49.316Z,9.80
2019-02-02T21:58:53.236Z,9.23
2019-02-02T22:02:57.122Z,8.90
2019-02-02T22:07:01.132Z,6.77
2019-02-02T22:11:05.353Z,9.27
2019-02-02T22:15:11.121Z,9.77
2019-02-02T22:19:14.957Z,8.87
2019-02-02T22:23:18.857Z,11.77
2019-02-02T22:27:22.788Z,10.70
2019-02-02T22:31:26.772Z,10.50
2019-02-02T22:35:30.806Z,13.17
2019-02-02T22:39:34.998Z,9.27
2019-02-02T22:43:39.341Z,11.03
2019-02-02T22:47:43.404Z,11.70
2019-02-02T22:51:47.300Z,13.23
2019-02-02T22:55:51.209Z,14.93
2019-02-02T22:59:55.046Z,12.30
2019-02-02T23:04:03.570Z,13.20
2019-02-02T23:08:14.334Z,11.33
2019-02-02T23:12:21.998Z,10.90
2019-02-02T23:16:27.732Z,9.90
2019-02-02T23:20:31.688Z,10.37
2019-02-02T23:24:35.626Z,13.10
2019-02-02T23:28:39.668Z,12.00
2019-02-02T23:32:43.618Z,7.83
2019-02-02T23:36:52.350Z,10.20
2019-02-02T23:40:53.267Z,13.53
2019-02-02T23:44:57.263Z,10.17
2019-02-02T23:49:02.493Z,10.73
2019-02-02T23:53:06.334Z,17.40
2019-02-02T23:57:10.250Z,13.27
